sensor_id;sensor_type;location;lat;lon;timestamp;pressure;altitude;pressure_sealevel;temperature;humidity
29907;BME280;16776;50.958;10.994;2024-02-15T00:01:40;98744.31;;;8.11;100.00
29907;BME280;16776;50.958;10.994;2024-02-15T00:04:07;98743.47;;;8.09;100.00
29907;BME280;16776;50.958;10.994;2024-02-15T00:06:33;98740.06;;;8.09;100.00
29907;BME280;16776;50.958;10.994;2024-02-15T00:09:00;98738.34;;;8.09;100.00
29907;BME280;16776;50.958;10.994;2024-02-15T00:11:26;98746.91;;;8.08;100.00
29907;BME280;16776;50.958;10.994;2024-02-15T00:13:53;98746.03;;;8.08;100.00
29907;BME280;16776;50.958;10.994;2024-02-15T00:16:21;98754.56;;;8.10;100.00
29907;BME280;16776;50.958;10.994;2024-02-15T00:18:49;98748.56;;;8.12;100.00
29907;BME280;16776;50.958;10.994;2024-02-15T00:21:17;98740.88;;;8.11;100.00
29907;BME280;16776;50.958;10.994;2024-02-15T00:23:43;98732.34;;;8.10;100.00
29907;BME280;16776;50.958;10.994;2024-02-15T00:26:10;98739.16;;;8.11;100.00
29907;BME280;16776;50.958;10.994;2024-02-15T00:28:37;98743.44;;;8.11;100.00
29907;BME280;16776;50.958;10.994;2024-02-15T00:31:04;98740.88;;;8.12;100.00
29907;BME280;16776;50.958;10.994;2024-02-15T00:33:30;98734.88;;;8.13;100.00
29907;BME280;16776;50.958;10.994;2024-02-15T00:35:58;98746.81;;;8.17;100.00
29907;BME280;16776;50.958;10.994;2024-02-15T00:38:25;98747.66;;;8.16;100.00
29907;BME280;16776;50.958;10.994;2024-02-15T00:40:51;98745.94;;;8.18;100.00
29907;BME280;16776;50.958;10.994;2024-02-15T00:43:18;98741.63;;;8.20;100.00
29907;BME280;16776;50.958;10.994;2024-02-15T00:45:45;98747.59;;;8.21;100.00
29907;BME280;16776;50.958;10.994;2024-02-15T00:48:11;98739.03;;;8.22;100.00
29907;BME280;16776;50.958;10.994;2024-02-15T00:50:38;98738.16;;;8.23;100.00
29907;BME280;16776;50.958;10.994;2024-02-15T00:53:06;98727.00;;;8.25;100.00
29907;BME280;16776;50.958;10.994;2024-02-15T00:55:32;98724.47;;;8.22;100.00
29907;BME280;16776;50.958;10.994;2024-02-15T00:57:59;98726.19;;;8.23;100.00
29907;BME280;16776;50.958;10.994;2024-02-15T01:00:25;98722.78;;;8.21;100.00
29907;BME280;16776;50.958;10.994;2024-02-15T01:02:52;98724.50;;;8.21;100.00
29907;BME280;16776;50.958;10.994;2024-02-15T01:05:19;98729.63;;;8.21;100.00
29907;BME280;16776;50.958;10.994;2024-02-15T01:07:47;98733.06;;;8.20;100.00
29907;BME280;16776;50.958;10.994;2024-02-15T01:10:15;98734.75;;;8.22;100.00
29907;BME280;16776;50.958;10.994;2024-02-15T01:12:42;98733.13;;;8.18;100.00
29907;BME280;16776;50.958;10.994;2024-02-15T01:15:09;98730.59;;;8.15;100.00
29907;BME280;16776;50.958;10.994;2024-02-15T01:17:36;98730.56;;;8.17;100.00
29907;BME280;16776;50.958;10.994;2024-02-15T01:20:03;98734.84;;;8.18;100.00
29907;BME280;16776;50.958;10.994;2024-02-15T01:22:30;98733.13;;;8.17;100.00
29907;BME280;16776;50.958;10.994;2024-02-15T01:24:57;98726.28;;;8.17;100.00
29907;BME280;16776;50.958;10.994;2024-02-15T01:27:25;98728.78;;;8.20;100.00
29907;BME280;16776;50.958;10.994;2024-02-15T01:29:55;98727.13;;;8.18;100.00
29907;BME280;16776;50.958;10.994;2024-02-15T01:32:22;98722.84;;;8.18;100.00
29907;BME280;16776;50.958;10.994;2024-02-15T01:34:48;98730.56;;;8.18;100.00
29907;BME280;16776;50.958;10.994;2024-02-15T01:37:19;98727.13;;;8.18;100.00
29907;BME280;16776;50.958;10.994;2024-02-15T01:39:45;98727.97;;;8.18;100.00
29907;BME280;16776;50.958;10.994;2024-02-15T01:42:12;98731.38;;;8.19;100.00
29907;BME280;16776;50.958;10.994;2024-02-15T01:44:41;98731.38;;;8.19;100.00
29907;BME280;16776;50.958;10.994;2024-02-15T01:47:10;98726.28;;;8.17;100.00
29907;BME280;16776;50.958;10.994;2024-02-15T01:49:37;98733.16;;;8.15;100.00
29907;BME280;16776;50.958;10.994;2024-02-15T01:52:05;98725.44;;;8.17;100.00
29907;BME280;16776;50.958;10.994;2024-02-15T01:54:34;98726.31;;;8.14;100.00
29907;BME280;16776;50.958;10.994;2024-02-15T01:57:01;98726.31;;;8.14;100.00
29907;BME280;16776;50.958;10.994;2024-02-15T01:59:28;98726.31;;;8.14;100.00
29907;BME280;16776;50.958;10.994;2024-02-15T02:01:56;98716.09;;;8.10;100.00
29907;BME280;16776;50.958;10.994;2024-02-15T02:04:23;98726.31;;;8.14;100.00
29907;BME280;16776;50.958;10.994;2024-02-15T02:06:50;98717.81;;;8.11;100.00
29907;BME280;16776;50.958;10.994;2024-02-15T02:09:16;98724.63;;;8.13;100.00
29907;BME280;16776;50.958;10.994;2024-02-15T02:11:44;98716.91;;;8.13;100.00
29907;BME280;16776;50.958;10.994;2024-02-15T02:14:11;98720.34;;;8.12;100.00
29907;BME280;16776;50.958;10.994;2024-02-15T02:16:38;98716.94;;;8.10;100.00
29907;BME280;16776;50.958;10.994;2024-02-15T02:19:06;98719.50;;;8.13;100.00
29907;BME280;16776;50.958;10.994;2024-02-15T02:21:35;98716.94;;;8.12;100.00
29907;BME280;16776;50.958;10.994;2024-02-15T02:24:03;98716.09;;;8.11;100.00
29907;BME280;16776;50.958;10.994;2024-02-15T02:26:34;98720.34;;;8.14;100.00
29907;BME280;16776;50.958;10.994;2024-02-15T02:29:00;98712.66;;;8.12;100.00
29907;BME280;16776;50.958;10.994;2024-02-15T02:31:32;98710.06;;;8.15;100.00
29907;BME280;16776;50.958;10.994;2024-02-15T02:33:59;98715.19;;;8.15;100.00
29907;BME280;16776;50.958;10.994;2024-02-15T02:36:26;98717.75;;;8.17;100.00
29907;BME280;16776;50.958;10.994;2024-02-15T02:38:54;98713.47;;;8.17;100.00
29907;BME280;16776;50.958;10.994;2024-02-15T02:41:25;98714.25;;;8.19;100.00
29907;BME280;16776;50.958;10.994;2024-02-15T02:43:54;98710.81;;;8.22;100.00
29907;BME280;16776;50.958;10.994;2024-02-15T02:46:20;98710.81;;;8.22;100.00
29907;BME280;16776;50.958;10.994;2024-02-15T02:48:47;98710.81;;;8.22;100.00
29907;BME280;16776;50.958;10.994;2024-02-15T02:51:13;98714.22;;;8.22;100.00
29907;BME280;16776;50.958;10.994;2024-02-15T02:53:40;98713.34;;;8.23;100.00
29907;BME280;16776;50.958;10.994;2024-02-15T02:56:07;98704.78;;;8.24;100.00
29907;BME280;16776;50.958;10.994;2024-02-15T02:58:34;98711.59;;;8.25;100.00
29907;BME280;16776;50.958;10.994;2024-02-15T03:01:02;98706.41;;;8.30;100.00
29907;BME280;16776;50.958;10.994;2024-02-15T03:03:29;98706.41;;;8.30;100.00
29907;BME280;16776;50.958;10.994;2024-02-15T03:05:55;98708.06;;;8.33;100.00
29907;BME280;16776;50.958;10.994;2024-02-15T03:08:22;98700.38;;;8.33;100.00
29907;BME280;16776;50.958;10.994;2024-02-15T03:10:49;98704.59;;;8.37;100.00
29907;BME280;16776;50.958;10.994;2024-02-15T03:13:16;98706.25;;;8.39;100.00
29907;BME280;16776;50.958;10.994;2024-02-15T03:15:44;98708.78;;;8.41;100.00
29907;BME280;16776;50.958;10.994;2024-02-15T03:18:14;98701.97;;;8.38;100.00
29907;BME280;16776;50.958;10.994;2024-02-15T03:20:41;98713.88;;;8.44;100.00
29907;BME280;16776;50.958;10.994;2024-02-15T03:23:08;98707.00;;;8.44;100.00
29907;BME280;16776;50.958;10.994;2024-02-15T03:25:35;98714.66;;;8.47;100.00
29907;BME280;16776;50.958;10.994;2024-02-15T03:28:02;98712.88;;;8.51;100.00
29907;BME280;16776;50.958;10.994;2024-02-15T03:30:30;98709.44;;;8.53;100.00
29907;BME280;16776;50.958;10.994;2024-02-15T03:32:59;98706.84;;;8.55;100.00
29907;BME280;16776;50.958;10.994;2024-02-15T03:35:27;98709.31;;;8.59;100.00
29907;BME280;16776;50.958;10.994;2024-02-15T03:37:57;98710.25;;;8.57;100.00
29907;BME280;16776;50.958;10.994;2024-02-15T03:40:23;98715.38;;;8.57;100.00
29907;BME280;16776;50.958;10.994;2024-02-15T03:42:52;98709.38;;;8.56;100.00
29907;BME280;16776;50.958;10.994;2024-02-15T03:45:18;98709.38;;;8.56;100.00
29907;BME280;16776;50.958;10.994;2024-02-15T03:47:45;98709.38;;;8.56;100.00
29907;BME280;16776;50.958;10.994;2024-02-15T03:50:12;98719.66;;;8.56;100.00
29907;BME280;16776;50.958;10.994;2024-02-15T03:52:41;98725.59;;;8.58;100.00
29907;BME280;16776;50.958;10.994;2024-02-15T03:55:09;98725.66;;;8.55;100.00
29907;BME280;16776;50.958;10.994;2024-02-15T03:57:35;98718.81;;;8.56;100.00
29907;BME280;16776;50.958;10.994;2024-02-15T04:00:06;98706.13;;;8.45;100.00
29907;BME280;16776;50.958;10.994;2024-02-15T04:02:34;98718.81;;;8.56;100.00
29907;BME280;16776;50.958;10.994;2024-02-15T04:05:01;98728.22;;;8.55;100.00
29907;BME280;16776;50.958;10.994;2024-02-15T04:07:30;98711.22;;;8.50;100.00
29907;BME280;16776;50.958;10.994;2024-02-15T04:09:59;98720.56;;;8.51;100.00
29907;BME280;16776;50.958;10.994;2024-02-15T04:12:26;98732.50;;;8.55;100.00
29907;BME280;16776;50.958;10.994;2024-02-15T04:14:53;98730.81;;;8.54;100.00
29907;BME280;16776;50.958;10.994;2024-02-15T04:17:21;98723.13;;;8.54;100.00
29907;BME280;16776;50.958;10.994;2024-02-15T04:19:48;98729.97;;;8.53;100.00
29907;BME280;16776;50.958;10.994;2024-02-15T04:22:15;98729.13;;;8.53;100.00
29907;BME280;16776;50.958;10.994;2024-02-15T04:24:42;98735.94;;;8.54;100.00
29907;BME280;16776;50.958;10.994;2024-02-15T04:27:11;98727.34;;;8.56;100.00
29907;BME280;16776;50.958;10.994;2024-02-15T04:29:39;98726.53;;;8.54;100.00
29907;BME280;16776;50.958;10.994;2024-02-15T04:32:06;98723.97;;;8.54;100.00
29907;BME280;16776;50.958;10.994;2024-02-15T04:34:35;98732.50;;;8.55;100.00
29907;BME280;16776;50.958;10.994;2024-02-15T04:37:02;98729.06;;;8.56;100.00
29907;BME280;16776;50.958;10.994;2024-02-15T04:39:31;98730.78;;;8.55;100.00
29907;BME280;16776;50.958;10.994;2024-02-15T04:41:58;98728.25;;;8.54;100.00
29907;BME280;16776;50.958;10.994;2024-02-15T04:44:26;98733.34;;;8.57;100.00
29907;BME280;16776;50.958;10.994;2024-02-15T04:46:53;98735.06;;;8.55;100.00
29907;BME280;16776;50.958;10.994;2024-02-15T04:49:20;98734.22;;;8.54;100.00
29907;BME280;16776;50.958;10.994;2024-02-15T04:51:48;98728.22;;;8.55;100.00
29907;BME280;16776;50.958;10.994;2024-02-15T04:54:14;98722.34;;;8.50;100.00
29907;BME280;16776;50.958;10.994;2024-02-15T04:56:43;98728.25;;;8.54;100.00
29907;BME280;16776;50.958;10.994;2024-02-15T04:59:11;98729.94;;;8.55;100.00
29907;BME280;16776;50.958;10.994;2024-02-15T05:01:42;98723.97;;;8.53;100.00
29907;BME280;16776;50.958;10.994;2024-02-15T05:04:09;98726.53;;;8.54;100.00
29907;BME280;16776;50.958;10.994;2024-02-15T05:06:36;98728.25;;;8.54;100.00
29907;BME280;16776;50.958;10.994;2024-02-15T05:09:03;98734.22;;;8.54;100.00
29907;BME280;16776;50.958;10.994;2024-02-15T05:11:33;98729.13;;;8.53;100.00
29907;BME280;16776;50.958;10.994;2024-02-15T05:14:00;98735.94;;;8.54;100.00
29907;BME280;16776;50.958;10.994;2024-02-15T05:16:28;98729.13;;;8.53;100.00
29907;BME280;16776;50.958;10.994;2024-02-15T05:18:58;98735.06;;;8.55;100.00
29907;BME280;16776;50.958;10.994;2024-02-15T05:21:24;98740.22;;;8.53;100.00
29907;BME280;16776;50.958;10.994;2024-02-15T05:23:51;98716.50;;;8.41;100.00
29907;BME280;16776;50.958;10.994;2024-02-15T05:26:18;98741.94;;;8.54;100.00
29907;BME280;16776;50.958;10.994;2024-02-15T05:28:48;98745.31;;;8.56;100.00
29907;BME280;16776;50.958;10.994;2024-02-15T05:31:17;98739.34;;;8.56;100.00
29907;BME280;16776;50.958;10.994;2024-02-15T05:33:45;98747.78;;;8.62;100.00
29907;BME280;16776;50.958;10.994;2024-02-15T05:36:14;98748.56;;;8.68;100.00
29907;BME280;16776;50.958;10.994;2024-02-15T05:38:42;98743.41;;;8.68;100.00
29907;BME280;16776;50.958;10.994;2024-02-15T05:41:10;98743.41;;;8.69;100.00
29907;BME280;16776;50.958;10.994;2024-02-15T05:43:46;98734.66;;;8.78;100.00
29907;BME280;16776;50.958;10.994;2024-02-15T05:46:14;98722.97;;;8.63;100.00
29907;BME280;16776;50.958;10.994;2024-02-15T05:48:41;98729.66;;;8.70;100.00
29907;BME280;16776;50.958;10.994;2024-02-15T05:51:08;98734.78;;;8.72;100.00
29907;BME280;16776;50.958;10.994;2024-02-15T05:53:36;98734.75;;;8.75;100.00
29907;BME280;16776;50.958;10.994;2024-02-15T05:56:03;98711.00;;;8.62;100.00
29907;BME280;16776;50.958;10.994;2024-02-15T05:58:30;98730.50;;;8.71;100.00
29907;BME280;16776;50.958;10.994;2024-02-15T06:00:57;98733.94;;;8.71;100.00
29907;BME280;16776;50.958;10.994;2024-02-15T06:03:26;98739.91;;;8.72;100.00
29907;BME280;16776;50.958;10.994;2024-02-15T06:05:53;98733.06;;;8.72;100.00
29907;BME280;16776;50.958;10.994;2024-02-15T06:08:23;98732.22;;;8.70;100.00
29907;BME280;16776;50.958;10.994;2024-02-15T06:10:51;98727.91;;;8.74;100.00
29907;BME280;16776;50.958;10.994;2024-02-15T06:13:18;98728.78;;;8.73;100.00
29907;BME280;16776;50.958;10.994;2024-02-15T06:15:44;98737.31;;;8.73;100.00
29907;BME280;16776;50.958;10.994;2024-02-15T06:18:12;98731.31;;;8.74;100.00
29907;BME280;16776;50.958;10.994;2024-02-15T06:20:40;98725.34;;;8.74;100.00
29907;BME280;16776;50.958;10.994;2024-02-15T06:23:08;98727.91;;;8.74;100.00
29907;BME280;16776;50.958;10.994;2024-02-15T06:25:35;98729.59;;;8.75;100.00
29907;BME280;16776;50.958;10.994;2024-02-15T06:28:03;98738.09;;;8.78;100.00
29907;BME280;16776;50.958;10.994;2024-02-15T06:30:39;98735.59;;;8.75;100.00
29907;BME280;16776;50.958;10.994;2024-02-15T06:33:23;98736.44;;;8.76;100.00
29907;BME280;16776;50.958;10.994;2024-02-15T06:36:07;98744.09;;;8.77;100.00
29907;BME280;16776;50.958;10.994;2024-02-15T06:38:51;98748.38;;;8.77;100.00
29907;BME280;16776;50.958;10.994;2024-02-15T06:41:34;98750.06;;;8.78;100.00
29907;BME280;16776;50.958;10.994;2024-02-15T06:44:03;98744.91;;;8.81;100.00
29907;BME280;16776;50.958;10.994;2024-02-15T06:46:29;98745.78;;;8.78;100.00
29907;BME280;16776;50.958;10.994;2024-02-15T06:48:56;98752.63;;;8.79;100.00
29907;BME280;16776;50.958;10.994;2024-02-15T06:51:23;98750.91;;;8.80;100.00
29907;BME280;16776;50.958;10.994;2024-02-15T06:53:50;98751.72;;;8.82;100.00
29907;BME280;16776;50.958;10.994;2024-02-15T06:56:16;98754.25;;;8.83;100.00
29907;BME280;16776;50.958;10.994;2024-02-15T06:58:45;98754.22;;;8.85;100.00
29907;BME280;16776;50.958;10.994;2024-02-15T07:01:15;98748.19;;;8.87;100.00
29907;BME280;16776;50.958;10.994;2024-02-15T07:03:43;98761.91;;;8.88;100.00
29907;BME280;16776;50.958;10.994;2024-02-15T07:06:10;98755.91;;;8.87;100.00
29907;BME280;16776;50.958;10.994;2024-02-15T07:08:38;98762.75;;;8.88;100.00
29907;BME280;16776;50.958;10.994;2024-02-15T07:11:06;98760.13;;;8.90;100.00
29907;BME280;16776;50.958;10.994;2024-02-15T07:13:34;98759.28;;;8.89;100.00
29907;BME280;16776;50.958;10.994;2024-02-15T07:16:01;98759.25;;;8.91;100.00
29907;BME280;16776;50.958;10.994;2024-02-15T07:18:30;98756.66;;;8.94;100.00
29907;BME280;16776;50.958;10.994;2024-02-15T07:20:56;98754.09;;;8.92;100.00
29907;BME280;16776;50.958;10.994;2024-02-15T07:23:24;98749.75;;;8.96;100.00
29907;BME280;16776;50.958;10.994;2024-02-15T07:25:51;98758.28;;;8.96;100.00
29907;BME280;16776;50.958;10.994;2024-02-15T07:28:19;98757.44;;;8.97;100.00
29907;BME280;16776;50.958;10.994;2024-02-15T07:30:46;98760.81;;;8.99;100.00
29907;BME280;16776;50.958;10.994;2024-02-15T07:33:14;98759.91;;;9.02;100.00
29907;BME280;16776;50.958;10.994;2024-02-15T07:35:44;98754.69;;;9.07;100.00
29907;BME280;16776;50.958;10.994;2024-02-15T07:38:12;98757.28;;;9.07;100.00
29907;BME280;16776;50.958;10.994;2024-02-15T07:40:38;98764.09;;;9.08;100.00
29907;BME280;16776;50.958;10.994;2024-02-15T07:43:06;98755.56;;;9.07;100.00
29907;BME280;16776;50.958;10.994;2024-02-15T07:45:33;98762.28;;;9.13;100.00
29907;BME280;16776;50.958;10.994;2024-02-15T07:48:03;98764.84;;;9.14;100.00
29907;BME280;16776;50.958;10.994;2024-02-15T07:50:30;98757.94;;;9.16;100.00
29907;BME280;16776;50.958;10.994;2024-02-15T07:52:58;98765.56;;;9.21;100.00
29907;BME280;16776;50.958;10.994;2024-02-15T07:55:25;98762.16;;;9.20;100.00
29907;BME280;16776;50.958;10.994;2024-02-15T07:57:51;98763.78;;;9.23;100.00
29907;BME280;16776;50.958;10.994;2024-02-15T08:00:19;98766.31;;;9.26;100.00
29907;BME280;16776;50.958;10.994;2024-02-15T08:02:45;98767.94;;;9.30;100.00
29907;BME280;16776;50.958;10.994;2024-02-15T08:05:13;98772.19;;;9.32;100.00
29907;BME280;16776;50.958;10.994;2024-02-15T08:07:42;98766.97;;;9.37;100.00
29907;BME280;16776;50.958;10.994;2024-02-15T08:10:11;98760.91;;;9.41;100.00
29907;BME280;16776;50.958;10.994;2024-02-15T08:12:40;98760.03;;;9.42;100.00
29907;BME280;16776;50.958;10.994;2024-02-15T08:15:08;98762.56;;;9.45;100.00
29907;BME280;16776;50.958;10.994;2024-02-15T08:17:38;98753.06;;;9.47;100.00
29907;BME280;16776;50.958;10.994;2024-02-15T08:20:06;98756.41;;;9.52;100.00
29907;BME280;16776;50.958;10.994;2024-02-15T08:22:34;98759.78;;;9.54;100.00
29907;BME280;16776;50.958;10.994;2024-02-15T08:25:00;98752.84;;;9.59;100.00
29907;BME280;16776;50.958;10.994;2024-02-15T08:27:31;98743.28;;;9.66;100.00
29907;BME280;16776;50.958;10.994;2024-02-15T08:29:59;98748.34;;;9.69;100.00
29907;BME280;16776;50.958;10.994;2024-02-15T08:32:28;98738.78;;;9.74;100.00
29907;BME280;16776;50.958;10.994;2024-02-15T08:34:54;98734.34;;;9.80;100.00
29907;BME280;16776;50.958;10.994;2024-02-15T08:37:21;98741.94;;;9.87;100.00
29907;BME280;16776;50.958;10.994;2024-02-15T08:39:48;98733.22;;;9.94;100.00
29907;BME280;16776;50.958;10.994;2024-02-15T08:42:14;98738.22;;;10.00;100.00
29907;BME280;16776;50.958;10.994;2024-02-15T08:44:42;98745.75;;;10.07;100.00
29907;BME280;16776;50.958;10.994;2024-02-15T08:47:09;98744.88;;;10.10;100.00
29907;BME280;16776;50.958;10.994;2024-02-15T08:49:35;98755.06;;;10.13;100.00
29907;BME280;16776;50.958;10.994;2024-02-15T08:52:02;98747.28;;;10.16;100.00
29907;BME280;16776;50.958;10.994;2024-02-15T08:54:29;98757.47;;;10.20;100.00
29907;BME280;16776;50.958;10.994;2024-02-15T08:56:58;98762.59;;;10.22;100.00
29907;BME280;16776;50.958;10.994;2024-02-15T08:59:24;98760.78;;;10.25;100.00
29907;BME280;16776;50.958;10.994;2024-02-15T09:01:54;98758.09;;;10.30;100.00
29907;BME280;16776;50.958;10.994;2024-02-15T09:04:22;98759.84;;;10.30;100.00
29907;BME280;16776;50.958;10.994;2024-02-15T09:06:49;98754.59;;;10.34;100.00
29907;BME280;16776;50.958;10.994;2024-02-15T09:09:16;98749.34;;;10.37;100.00
29907;BME280;16776;50.958;10.994;2024-02-15T09:11:43;98761.28;;;10.41;100.00
29907;BME280;16776;50.958;10.994;2024-02-15T09:14:09;98762.06;;;10.43;100.00
29907;BME280;16776;50.958;10.994;2024-02-15T09:16:36;98761.16;;;10.46;100.00
29907;BME280;16776;50.958;10.994;2024-02-15T09:19:04;98755.88;;;10.50;100.00
29907;BME280;16776;50.958;10.994;2024-02-15T09:21:31;98755.03;;;10.50;100.00
29907;BME280;16776;50.958;10.994;2024-02-15T09:23:58;98760.16;;;10.53;100.00
29907;BME280;16776;50.958;10.994;2024-02-15T09:26:25;98767.75;;;10.57;100.00
29907;BME280;16776;50.958;10.994;2024-02-15T09:28:52;98762.59;;;10.59;100.00
29907;BME280;16776;50.958;10.994;2024-02-15T09:31:19;98752.25;;;10.60;100.00
29907;BME280;16776;50.958;10.994;2024-02-15T09:33:46;98755.63;;;10.62;100.00
29907;BME280;16776;50.958;10.994;2024-02-15T09:36:14;98745.22;;;10.67;100.00
29907;BME280;16776;50.958;10.994;2024-02-15T09:38:41;98752.09;;;10.67;100.00
29907;BME280;16776;50.958;10.994;2024-02-15T09:41:08;98751.13;;;10.71;100.00
29907;BME280;16776;50.958;10.994;2024-02-15T09:43:35;98753.69;;;10.71;100.00
29907;BME280;16776;50.958;10.994;2024-02-15T09:46:02;98743.34;;;10.74;100.00
29907;BME280;16776;50.958;10.994;2024-02-15T09:48:29;98742.44;;;10.75;100.00
29907;BME280;16776;50.958;10.994;2024-02-15T09:50:59;98724.56;;;10.69;100.00
29907;BME280;16776;50.958;10.994;2024-02-15T09:53:29;98744.78;;;10.84;100.00
29907;BME280;16776;50.958;10.994;2024-02-15T09:55:56;98735.31;;;10.84;100.00
29907;BME280;16776;50.958;10.994;2024-02-15T09:58:29;98749.88;;;10.87;100.00
29907;BME280;16776;50.958;10.994;2024-02-15T10:01:01;98736.81;;;10.93;100.00
29907;BME280;16776;50.958;10.994;2024-02-15T10:03:32;98739.34;;;10.94;100.00
29907;BME280;16776;50.958;10.994;2024-02-15T10:06:00;98734.16;;;10.96;100.00
29907;BME280;16776;50.958;10.994;2024-02-15T10:08:26;98739.25;;;10.99;100.00
29907;BME280;16776;50.958;10.994;2024-02-15T10:11:06;98736.31;;;11.11;100.00
29907;BME280;16776;50.958;10.994;2024-02-15T10:13:34;98737.38;;;11.04;100.00
29907;BME280;16776;50.958;10.994;2024-02-15T10:16:13;98743.06;;;11.15;100.00
29907;BME280;16776;50.958;10.994;2024-02-15T10:18:40;98738.09;;;11.09;100.00
29907;BME280;16776;50.958;10.994;2024-02-15T10:21:07;98738.06;;;11.11;100.00
29907;BME280;16776;50.958;10.994;2024-02-15T10:23:34;98728.50;;;11.14;100.00
29907;BME280;16776;50.958;10.994;2024-02-15T10:26:20;98732.50;;;11.26;100.00
29907;BME280;16776;50.958;10.994;2024-02-15T10:29:04;98727.28;;;11.27;100.00
29907;BME280;16776;50.958;10.994;2024-02-15T10:31:32;98730.91;;;11.20;100.00
29907;BME280;16776;50.958;10.994;2024-02-15T10:34:02;98728.22;;;11.25;100.00
29907;BME280;16776;50.958;10.994;2024-02-15T10:36:30;98709.59;;;11.14;100.00
29907;BME280;16776;50.958;10.994;2024-02-15T10:39:10;98721.06;;;11.34;100.00
29907;BME280;16776;50.958;10.994;2024-02-15T10:41:43;98710.84;;;11.31;100.00
29907;BME280;16776;50.958;10.994;2024-02-15T10:44:16;98706.34;;;11.38;100.00
29907;BME280;16776;50.958;10.994;2024-02-15T10:46:44;98692.69;;;11.34;100.00
29907;BME280;16776;50.958;10.994;2024-02-15T10:49:12;98693.22;;;11.45;100.00
29907;BME280;16776;50.958;10.994;2024-02-15T10:51:43;98647.94;;;11.37;100.00
29907;BME280;16776;50.958;10.994;2024-02-15T10:54:12;98683.81;;;11.74;100.00
29907;BME280;16776;50.958;10.994;2024-02-15T10:56:44;98690.94;;;11.94;100.00
29907;BME280;16776;50.958;10.994;2024-02-15T10:59:17;98678.38;;;12.09;100.00
29907;BME280;16776;50.958;10.994;2024-02-15T11:01:45;98680.47;;;12.24;100.00
29907;BME280;16776;50.958;10.994;2024-02-15T11:04:15;98672.88;;;12.46;100.00
29907;BME280;16776;50.958;10.994;2024-02-15T11:06:43;98673.16;;;12.63;100.00
29907;BME280;16776;50.958;10.994;2024-02-15T11:09:10;98676.00;;;12.81;100.00
29907;BME280;16776;50.958;10.994;2024-02-15T11:11:39;98670.41;;;12.93;100.00
29907;BME280;16776;50.958;10.994;2024-02-15T11:14:27;98673.88;;;13.17;100.00
29907;BME280;16776;50.958;10.994;2024-02-15T11:16:55;98668.00;;;13.12;100.00
29907;BME280;16776;50.958;10.994;2024-02-15T11:19:42;98671.72;;;13.28;100.00
29907;BME280;16776;50.958;10.994;2024-02-15T11:22:12;98669.19;;;13.26;100.00
29907;BME280;16776;50.958;10.994;2024-02-15T11:24:46;98672.16;;;13.39;100.00
29907;BME280;16776;50.958;10.994;2024-02-15T11:27:24;98650.56;;;13.40;100.00
29907;BME280;16776;50.958;10.994;2024-02-15T11:29:54;98663.50;;;13.40;100.00
29907;BME280;16776;50.958;10.994;2024-02-15T11:32:40;98660.81;;;13.43;100.00
29907;BME280;16776;50.958;10.994;2024-02-15T11:35:09;98658.03;;;13.24;100.00
29907;BME280;16776;50.958;10.994;2024-02-15T11:37:55;98659.59;;;13.30;100.00
29907;BME280;16776;50.958;10.994;2024-02-15T11:40:24;98656.66;;;13.16;100.00
29907;BME280;16776;50.958;10.994;2024-02-15T11:42:53;98654.25;;;13.11;100.00
29907;BME280;16776;50.958;10.994;2024-02-15T11:45:21;98643.38;;;13.01;100.00
29907;BME280;16776;50.958;10.994;2024-02-15T11:47:49;98656.13;;;13.06;100.00
29907;BME280;16776;50.958;10.994;2024-02-15T11:50:17;98654.75;;;12.97;100.00
29907;BME280;16776;50.958;10.994;2024-02-15T11:52:44;98655.59;;;12.98;100.00
29907;BME280;16776;50.958;10.994;2024-02-15T11:55:12;98646.38;;;12.91;100.00
29907;BME280;16776;50.958;10.994;2024-02-15T11:57:39;98651.41;;;12.94;100.00
29907;BME280;16776;50.958;10.994;2024-02-15T12:00:24;98648.75;;;12.97;100.00
29907;BME280;16776;50.958;10.994;2024-02-15T12:03:08;98645.69;;;12.86;100.00
29907;BME280;16776;50.958;10.994;2024-02-15T12:05:49;98638.00;;;12.84;100.00
29907;BME280;16776;50.958;10.994;2024-02-15T12:08:34;98628.59;;;12.82;100.00
29907;BME280;16776;50.958;10.994;2024-02-15T12:11:18;98633.03;;;12.78;100.00
29907;BME280;16776;50.958;10.994;2024-02-15T12:14:02;98632.19;;;12.78;100.00
29907;BME280;16776;50.958;10.994;2024-02-15T12:16:47;98626.00;;;12.82;100.00
29907;BME280;16776;50.958;10.994;2024-02-15T12:19:31;98632.91;;;12.81;100.00
29907;BME280;16776;50.958;10.994;2024-02-15T12:21:59;98629.34;;;12.85;100.00
29907;BME280;16776;50.958;10.994;2024-02-15T12:24:26;98623.16;;;12.89;100.00
29907;BME280;16776;50.958;10.994;2024-02-15T12:27:00;98630.41;;;13.03;100.00
29907;BME280;16776;50.958;10.994;2024-02-15T12:29:28;98630.28;;;13.06;100.00
29907;BME280;16776;50.958;10.994;2024-02-15T12:31:56;98625.72;;;13.13;100.00
29907;BME280;16776;50.958;10.994;2024-02-15T12:34:22;98631.59;;;13.18;100.00
29907;BME280;16776;50.958;10.994;2024-02-15T12:36:49;98640.78;;;13.25;100.00
29907;BME280;16776;50.958;10.994;2024-02-15T12:39:24;98640.41;;;13.35;100.00
29907;BME280;16776;50.958;10.994;2024-02-15T12:41:51;98608.47;;;13.13;100.00
29907;BME280;16776;50.958;10.994;2024-02-15T12:44:17;98636.94;;;13.36;100.00
29907;BME280;16776;50.958;10.994;2024-02-15T12:46:45;98640.22;;;13.40;100.00
29907;BME280;16776;50.958;10.994;2024-02-15T12:49:28;98636.19;;;13.56;100.00
29907;BME280;16776;50.958;10.994;2024-02-15T12:52:34;98637.81;;;13.59;100.00
29907;BME280;16776;50.958;10.994;2024-02-15T12:55:12;98638.59;;;13.61;100.00
29907;BME280;16776;50.958;10.994;2024-02-15T12:57:39;98634.50;;;13.55;100.00